DTTJ/DJE METAR and TAF weather

Enter ICAO airport designator
Station Type Date Time Source
DTTJ METAR 2020/04/07 04:00 UTC NOAA

DTTJ 070400Z VRB02KT 8000 NSC 12/09 Q1023 NOSIG


Station Type Date Time Source
DTTJ Decoded METAR 2020/04/07 04:00 UTC NOAA

Djerba Mellita, Tunisia (DTTJ) 33-52N 010-46E 4M
Apr 07, 2020 - 12:00 AM EDT / 2020.04.07 0400 UTC
Wind: Variable at 2 MPH (2 KT):0
Visibility: 4 mile(s):0
Temperature: 53 F (12 C)
Dew Point: 48 F (9 C)
Relative Humidity: 81%
Pressure (altimeter): 30.21 in. Hg (1023 hPa)
ob: DTTJ 070400Z VRB02KT 8000 NSC 12/09 Q1023 NOSIG
cycle: 4

Station Type Date Time Source
DTTJ TAF 2020/04/06 18:25 UTC NOAA

TAF DTTJ 061700Z 0618/0718 07014KT CAVOK
BECMG 0622/0624 05004KT

Example: see airport list